sensor_id;sensor_type;location;lat;lon;timestamp;pressure;altitude;pressure_sealevel;temperature;humidity
61086;BME280;46967;48.876;2.136;2023-06-14T00:00:30;100957.44;;;47.41;11.90
61086;BME280;46967;48.876;2.136;2023-06-14T00:02:56;100956.81;;;47.49;12.13
61086;BME280;46967;48.876;2.136;2023-06-14T00:05:22;100944.69;;;47.50;12.11
61086;BME280;46967;48.876;2.136;2023-06-14T00:07:48;100957.91;;;47.48;12.02
61086;BME280;46967;48.876;2.136;2023-06-14T00:10:14;100961.53;;;47.44;11.84
61086;BME280;46967;48.876;2.136;2023-06-14T00:12:40;100951.16;;;47.06;12.45
61086;BME280;46967;48.876;2.136;2023-06-14T00:15:06;100957.19;;;47.38;12.01
61086;BME280;46967;48.876;2.136;2023-06-14T00:17:32;100959.13;;;47.37;12.06
61086;BME280;46967;48.876;2.136;2023-06-14T00:19:58;100962.78;;;47.27;12.07
61086;BME280;46967;48.876;2.136;2023-06-14T00:22:24;100961.94;;;47.27;12.20
61086;BME280;46967;48.876;2.136;2023-06-14T00:24:50;100971.81;;;47.33;12.31
61086;BME280;46967;48.876;2.136;2023-06-14T00:27:16;100971.22;;;47.36;12.15
61086;BME280;46967;48.876;2.136;2023-06-14T00:29:41;100967.16;;;47.33;12.54
61086;BME280;46967;48.876;2.136;2023-06-14T00:32:07;100969.03;;;47.38;12.12
61086;BME280;46967;48.876;2.136;2023-06-14T00:34:33;100967.72;;;47.30;12.36
61086;BME280;46967;48.876;2.136;2023-06-14T00:36:58;100972.06;;;47.02;12.48
61086;BME280;46967;48.876;2.136;2023-06-14T00:39:24;100974.66;;;46.83;12.51
61086;BME280;46967;48.876;2.136;2023-06-14T00:41:49;100967.50;;;46.82;12.57
61086;BME280;46967;48.876;2.136;2023-06-14T00:44:16;100973.25;;;46.86;12.44
61086;BME280;46967;48.876;2.136;2023-06-14T00:46:42;100966.09;;;46.90;12.44
61086;BME280;46967;48.876;2.136;2023-06-14T00:49:08;100965.06;;;46.80;12.66
61086;BME280;46967;48.876;2.136;2023-06-14T00:51:33;100969.66;;;46.95;12.30
61086;BME280;46967;48.876;2.136;2023-06-14T00:53:59;100977.31;;;46.98;12.17
61086;BME280;46967;48.876;2.136;2023-06-14T00:56:24;100972.53;;;47.09;12.45
61086;BME280;46967;48.876;2.136;2023-06-14T00:58:50;100974.31;;;46.90;12.31
61086;BME280;46967;48.876;2.136;2023-06-14T01:01:17;100979.28;;;46.88;12.32
61086;BME280;46967;48.876;2.136;2023-06-14T01:03:42;100977.44;;;46.73;12.87
61086;BME280;46967;48.876;2.136;2023-06-14T01:09:27;100972.81;;;46.73;12.70
61086;BME280;46967;48.876;2.136;2023-06-14T01:12:09;100975.84;;;46.72;12.89
61086;BME280;46967;48.876;2.136;2023-06-14T01:14:38;100969.03;;;46.64;12.77
61086;BME280;46967;48.876;2.136;2023-06-14T01:17:05;100976.75;;;46.52;12.58
61086;BME280;46967;48.876;2.136;2023-06-14T01:19:33;100977.88;;;46.56;12.55
61086;BME280;46967;48.876;2.136;2023-06-14T01:22:00;100984.06;;;46.67;12.81
61086;BME280;46967;48.876;2.136;2023-06-14T01:24:26;100981.81;;;46.79;12.38
61086;BME280;46967;48.876;2.136;2023-06-14T01:26:58;100977.56;;;46.57;12.68
61086;BME280;46967;48.876;2.136;2023-06-14T01:29:26;100976.53;;;46.43;12.72
61086;BME280;46967;48.876;2.136;2023-06-14T01:31:53;100983.16;;;46.32;12.76
61086;BME280;46967;48.876;2.136;2023-06-14T01:34:19;100978.22;;;46.34;12.90
61086;BME280;46967;48.876;2.136;2023-06-14T01:36:45;100983.72;;;46.34;12.95
61086;BME280;46967;48.876;2.136;2023-06-14T01:39:14;100979.00;;;46.39;12.70
61086;BME280;46967;48.876;2.136;2023-06-14T01:41:42;100975.84;;;46.17;13.23
61086;BME280;46967;48.876;2.136;2023-06-14T01:44:09;100973.63;;;46.19;12.77
61086;BME280;46967;48.876;2.136;2023-06-14T01:46:36;100973.34;;;46.20;13.17
61086;BME280;46967;48.876;2.136;2023-06-14T01:49:01;100974.19;;;46.21;12.97
61086;BME280;46967;48.876;2.136;2023-06-14T01:51:27;100968.41;;;46.17;12.91
61086;BME280;46967;48.876;2.136;2023-06-14T01:53:53;100976.16;;;46.05;13.32
61086;BME280;46967;48.876;2.136;2023-06-14T01:56:18;100975.38;;;45.94;13.20
61086;BME280;46967;48.876;2.136;2023-06-14T01:58:43;100972.09;;;45.82;13.26
61086;BME280;46967;48.876;2.136;2023-06-14T02:01:08;100973.19;;;45.81;13.22
61086;BME280;46967;48.876;2.136;2023-06-14T02:03:34;100971.00;;;45.78;13.25
61086;BME280;46967;48.876;2.136;2023-06-14T02:06:00;100978.41;;;45.82;13.09
61086;BME280;46967;48.876;2.136;2023-06-14T02:08:26;100978.41;;;45.87;13.25
61086;BME280;46967;48.876;2.136;2023-06-14T02:10:51;100982.25;;;45.71;13.45
61086;BME280;46967;48.876;2.136;2023-06-14T02:13:16;100978.44;;;45.56;13.12
61086;BME280;46967;48.876;2.136;2023-06-14T02:15:42;100979.00;;;45.48;13.12
61086;BME280;46967;48.876;2.136;2023-06-14T02:18:09;100984.75;;;45.47;13.44
61086;BME280;46967;48.876;2.136;2023-06-14T02:20:35;100988.84;;;45.44;13.52
61086;BME280;46967;48.876;2.136;2023-06-14T02:23:01;100978.75;;;45.45;13.40
61086;BME280;46967;48.876;2.136;2023-06-14T02:25:26;100983.94;;;45.31;13.55
61086;BME280;46967;48.876;2.136;2023-06-14T02:27:53;100989.97;;;45.38;13.61
61086;BME280;46967;48.876;2.136;2023-06-14T02:30:20;100983.91;;;45.36;13.45
61086;BME280;46967;48.876;2.136;2023-06-14T02:32:45;100976.78;;;45.30;13.52
61086;BME280;46967;48.876;2.136;2023-06-14T02:35:11;100976.25;;;45.33;13.46
61086;BME280;46967;48.876;2.136;2023-06-14T02:37:38;100974.06;;;45.30;13.69
61086;BME280;46967;48.876;2.136;2023-06-14T02:40:04;100977.63;;;45.25;13.35
61086;BME280;46967;48.876;2.136;2023-06-14T02:42:32;100978.72;;;45.24;13.40
61086;BME280;46967;48.876;2.136;2023-06-14T02:44:57;100988.03;;;45.08;13.63
61086;BME280;46967;48.876;2.136;2023-06-14T02:47:23;100979.81;;;45.02;13.51
61086;BME280;46967;48.876;2.136;2023-06-14T02:49:49;100980.34;;;45.04;13.73
61086;BME280;46967;48.876;2.136;2023-06-14T02:52:15;100982.28;;;45.04;13.59
61086;BME280;46967;48.876;2.136;2023-06-14T02:54:40;100987.47;;;45.06;13.30
61086;BME280;46967;48.876;2.136;2023-06-14T02:57:06;100989.41;;;45.05;13.78
61086;BME280;46967;48.876;2.136;2023-06-14T02:59:35;100995.94;;;44.94;13.40
61086;BME280;46967;48.876;2.136;2023-06-14T03:02:01;100995.66;;;44.85;13.71
61086;BME280;46967;48.876;2.136;2023-06-14T03:04:26;100998.91;;;44.82;13.60
61086;BME280;46967;48.876;2.136;2023-06-14T03:06:52;100994.25;;;44.72;13.71
61086;BME280;46967;48.876;2.136;2023-06-14T03:09:19;100998.06;;;44.61;13.99
61086;BME280;46967;48.876;2.136;2023-06-14T03:11:44;101002.97;;;44.59;14.16
61086;BME280;46967;48.876;2.136;2023-06-14T03:14:10;100994.25;;;44.67;13.75
61086;BME280;46967;48.876;2.136;2023-06-14T03:16:36;100992.91;;;44.75;13.86
61086;BME280;46967;48.876;2.136;2023-06-14T03:19:02;101001.66;;;44.77;13.95
61086;BME280;46967;48.876;2.136;2023-06-14T03:21:27;101009.50;;;44.58;13.91
61086;BME280;46967;48.876;2.136;2023-06-14T03:23:53;101006.81;;;44.68;13.98
61086;BME280;46967;48.876;2.136;2023-06-14T03:26:19;101007.13;;;44.82;13.80
61086;BME280;46967;48.876;2.136;2023-06-14T03:28:45;101010.94;;;44.71;13.63
61086;BME280;46967;48.876;2.136;2023-06-14T03:31:11;101017.75;;;44.68;13.56
61086;BME280;46967;48.876;2.136;2023-06-14T03:33:37;101024.31;;;44.62;13.64
61086;BME280;46967;48.876;2.136;2023-06-14T03:36:02;101020.72;;;44.51;13.52
61086;BME280;46967;48.876;2.136;2023-06-14T03:38:28;101026.66;;;44.32;13.83
61086;BME280;46967;48.876;2.136;2023-06-14T03:40:53;101028.47;;;44.17;13.89
61086;BME280;46967;48.876;2.136;2023-06-14T03:43:18;101025.72;;;44.11;13.96
61086;BME280;46967;48.876;2.136;2023-06-14T03:45:44;101031.66;;;44.03;13.94
61086;BME280;46967;48.876;2.136;2023-06-14T03:48:09;101039.19;;;44.23;14.17
61086;BME280;46967;48.876;2.136;2023-06-14T03:50:35;101040.06;;;44.39;13.69
61086;BME280;46967;48.876;2.136;2023-06-14T03:53:06;101042.94;;;44.17;13.87
61086;BME280;46967;48.876;2.136;2023-06-14T03:55:31;101047.59;;;44.17;14.30
61086;BME280;46967;48.876;2.136;2023-06-14T03:57:58;101040.75;;;44.14;13.83
61086;BME280;46967;48.876;2.136;2023-06-14T04:00:23;101040.44;;;44.05;14.02
61086;BME280;46967;48.876;2.136;2023-06-14T04:02:49;101037.13;;;44.03;14.05
61086;BME280;46967;48.876;2.136;2023-06-14T04:05:14;101045.00;;;43.94;14.04
61086;BME280;46967;48.876;2.136;2023-06-14T04:07:42;101043.09;;;43.95;13.99
61086;BME280;46967;48.876;2.136;2023-06-14T04:10:11;101036.72;;;43.79;14.17
61086;BME280;46967;48.876;2.136;2023-06-14T04:12:36;101042.47;;;43.83;14.11
61086;BME280;46967;48.876;2.136;2023-06-14T04:15:01;101050.59;;;43.77;14.19
61086;BME280;46967;48.876;2.136;2023-06-14T04:17:28;101057.84;;;43.61;14.34
61086;BME280;46967;48.876;2.136;2023-06-14T04:19:53;101049.06;;;43.54;14.38
61086;BME280;46967;48.876;2.136;2023-06-14T04:22:18;101055.38;;;43.60;14.39
61086;BME280;46967;48.876;2.136;2023-06-14T04:24:43;101060.69;;;43.72;14.04
61086;BME280;46967;48.876;2.136;2023-06-14T04:27:09;101058.38;;;43.91;14.28
61086;BME280;46967;48.876;2.136;2023-06-14T04:29:35;101066.31;;;43.92;14.21
61086;BME280;46967;48.876;2.136;2023-06-14T04:32:01;101067.53;;;44.12;13.99
61086;BME280;46967;48.876;2.136;2023-06-14T04:34:26;101067.84;;;44.21;14.06
61086;BME280;46967;48.876;2.136;2023-06-14T04:36:55;101072.97;;;44.12;13.94
61086;BME280;46967;48.876;2.136;2023-06-14T04:39:21;101071.69;;;44.20;13.98
61086;BME280;46967;48.876;2.136;2023-06-14T04:41:47;101079.31;;;44.18;14.13
61086;BME280;46967;48.876;2.136;2023-06-14T04:44:12;101081.06;;;44.34;14.12
61086;BME280;46967;48.876;2.136;2023-06-14T04:46:38;101073.75;;;44.50;14.01
61086;BME280;46967;48.876;2.136;2023-06-14T04:49:09;101078.94;;;44.46;14.14
61086;BME280;46967;48.876;2.136;2023-06-14T04:51:34;101078.63;;;44.43;13.89
61086;BME280;46967;48.876;2.136;2023-06-14T04:54:00;101084.06;;;44.38;14.07
61086;BME280;46967;48.876;2.136;2023-06-14T04:56:26;101077.19;;;44.30;14.01
61086;BME280;46967;48.876;2.136;2023-06-14T04:58:52;101078.19;;;44.13;14.11
61086;BME280;46967;48.876;2.136;2023-06-14T05:01:18;101084.19;;;44.10;14.05
61086;BME280;46967;48.876;2.136;2023-06-14T05:03:44;101082.66;;;44.30;13.87
61086;BME280;46967;48.876;2.136;2023-06-14T05:06:11;101084.09;;;44.43;13.95
61086;BME280;46967;48.876;2.136;2023-06-14T05:08:37;101077.84;;;44.47;13.90
61086;BME280;46967;48.876;2.136;2023-06-14T05:11:02;101082.88;;;44.71;14.00
61086;BME280;46967;48.876;2.136;2023-06-14T05:13:28;101080.47;;;44.80;13.92
61086;BME280;46967;48.876;2.136;2023-06-14T05:15:53;101079.94;;;44.88;13.68
61086;BME280;46967;48.876;2.136;2023-06-14T05:18:19;101080.41;;;44.70;13.81
61086;BME280;46967;48.876;2.136;2023-06-14T05:20:45;101083.94;;;44.60;14.12
61086;BME280;46967;48.876;2.136;2023-06-14T05:23:11;101087.00;;;44.74;13.82
61086;BME280;46967;48.876;2.136;2023-06-14T05:25:41;101081.53;;;44.84;13.81
61086;BME280;46967;48.876;2.136;2023-06-14T05:28:07;101083.50;;;44.94;13.80
61086;BME280;46967;48.876;2.136;2023-06-14T05:30:32;101084.59;;;44.88;13.72
61086;BME280;46967;48.876;2.136;2023-06-14T05:32:58;101087.44;;;44.50;13.67
61086;BME280;46967;48.876;2.136;2023-06-14T05:35:24;101089.88;;;43.71;13.38
61086;BME280;46967;48.876;2.136;2023-06-14T05:37:52;101087.78;;;43.78;13.41
61086;BME280;46967;48.876;2.136;2023-06-14T05:40:17;101093.38;;;43.94;13.50
61086;BME280;46967;48.876;2.136;2023-06-14T05:42:42;101100.38;;;43.80;13.43
61086;BME280;46967;48.876;2.136;2023-06-14T05:45:08;101095.72;;;43.80;13.41
61086;BME280;46967;48.876;2.136;2023-06-14T05:47:33;101096.06;;;43.89;13.63
61086;BME280;46967;48.876;2.136;2023-06-14T05:49:59;101093.88;;;43.58;13.50
61086;BME280;46967;48.876;2.136;2023-06-14T05:52:24;101095.03;;;43.63;13.56
61086;BME280;46967;48.876;2.136;2023-06-14T05:54:50;101084.34;;;43.93;13.16
61086;BME280;46967;48.876;2.136;2023-06-14T05:57:15;101098.13;;;44.14;13.32
61086;BME280;46967;48.876;2.136;2023-06-14T05:59:41;101094.97;;;44.27;13.19
61086;BME280;46967;48.876;2.136;2023-06-14T06:02:06;101098.59;;;44.38;13.25
61086;BME280;46967;48.876;2.136;2023-06-14T06:04:32;101095.88;;;44.43;13.20
61086;BME280;46967;48.876;2.136;2023-06-14T06:06:57;101098.63;;;44.43;13.04
61086;BME280;46967;48.876;2.136;2023-06-14T06:09:22;101093.66;;;44.35;13.21
61086;BME280;46967;48.876;2.136;2023-06-14T06:11:48;101100.81;;;44.46;13.23
61086;BME280;46967;48.876;2.136;2023-06-14T06:14:13;101099.28;;;44.71;13.12
61086;BME280;46967;48.876;2.136;2023-06-14T06:16:38;101104.28;;;44.84;12.69
61086;BME280;46967;48.876;2.136;2023-06-14T06:19:04;101104.28;;;44.90;12.79
61086;BME280;46967;48.876;2.136;2023-06-14T06:21:29;101105.44;;;44.99;12.83
61086;BME280;46967;48.876;2.136;2023-06-14T06:23:54;101105.44;;;45.09;12.36
61086;BME280;46967;48.876;2.136;2023-06-14T06:26:22;101104.94;;;45.22;12.93
61086;BME280;46967;48.876;2.136;2023-06-14T06:28:47;101102.47;;;45.36;12.64
61086;BME280;46967;48.876;2.136;2023-06-14T06:31:13;101110.94;;;45.14;12.78
61086;BME280;46967;48.876;2.136;2023-06-14T06:33:38;101114.50;;;45.25;12.23
61086;BME280;46967;48.876;2.136;2023-06-14T06:36:05;101114.53;;;45.35;12.38
61086;BME280;46967;48.876;2.136;2023-06-14T06:38:30;101118.69;;;45.53;12.03
61086;BME280;46967;48.876;2.136;2023-06-14T06:40:56;101118.13;;;45.62;12.23
61086;BME280;46967;48.876;2.136;2023-06-14T06:43:21;101116.50;;;45.66;12.16
61086;BME280;46967;48.876;2.136;2023-06-14T06:45:47;101121.44;;;45.89;12.07
61086;BME280;46967;48.876;2.136;2023-06-14T06:48:12;101116.22;;;45.88;11.95
61086;BME280;46967;48.876;2.136;2023-06-14T06:50:38;101126.63;;;46.06;11.83
61086;BME280;46967;48.876;2.136;2023-06-14T06:53:03;101137.31;;;46.03;11.92
61086;BME280;46967;48.876;2.136;2023-06-14T06:55:29;101133.75;;;46.07;12.06
61086;BME280;46967;48.876;2.136;2023-06-14T06:57:55;101131.28;;;45.90;11.98
61086;BME280;46967;48.876;2.136;2023-06-14T07:00:20;101135.94;;;46.05;12.18
61086;BME280;46967;48.876;2.136;2023-06-14T07:02:46;101137.59;;;45.75;11.74
61086;BME280;46967;48.876;2.136;2023-06-14T07:05:12;101135.94;;;46.21;11.62
61086;BME280;46967;48.876;2.136;2023-06-14T07:07:37;101141.41;;;46.31;11.52
61086;BME280;46967;48.876;2.136;2023-06-14T07:10:04;101138.31;;;46.53;11.34
61086;BME280;46967;48.876;2.136;2023-06-14T07:12:31;101142.44;;;46.45;11.42
61086;BME280;46967;48.876;2.136;2023-06-14T07:14:59;101152.38;;;46.26;11.37
61086;BME280;46967;48.876;2.136;2023-06-14T07:17:25;101149.56;;;46.52;11.50
61086;BME280;46967;48.876;2.136;2023-06-14T07:19:51;101141.41;;;46.31;11.54
61086;BME280;46967;48.876;2.136;2023-06-14T07:22:16;101145.41;;;46.64;10.82
61086;BME280;46967;48.876;2.136;2023-06-14T07:24:42;101157.44;;;46.79;10.74
61086;BME280;46967;48.876;2.136;2023-06-14T07:27:08;101156.31;;;46.95;10.78
61086;BME280;46967;48.876;2.136;2023-06-14T07:29:34;101162.81;;;47.05;10.89
61086;BME280;46967;48.876;2.136;2023-06-14T07:31:59;101155.91;;;47.17;10.48
61086;BME280;46967;48.876;2.136;2023-06-14T07:34:24;101159.59;;;46.87;10.32
61086;BME280;46967;48.876;2.136;2023-06-14T07:36:50;101161.91;;;46.49;10.50
61086;BME280;46967;48.876;2.136;2023-06-14T07:39:16;101165.06;;;46.87;10.26
61086;BME280;46967;48.876;2.136;2023-06-14T07:41:41;101170.25;;;47.04;10.18
61086;BME280;46967;48.876;2.136;2023-06-14T07:44:07;101168.16;;;47.35;10.09
61086;BME280;46967;48.876;2.136;2023-06-14T07:46:32;101172.41;;;47.57;10.55
61086;BME280;46967;48.876;2.136;2023-06-14T07:48:59;101174.09;;;47.87;10.28
61086;BME280;46967;48.876;2.136;2023-06-14T07:51:25;101172.63;;;48.00;10.01
61086;BME280;46967;48.876;2.136;2023-06-14T07:53:50;101172.47;;;48.16;10.05
61086;BME280;46967;48.876;2.136;2023-06-14T07:56:16;101170.91;;;48.10;9.61
61086;BME280;46967;48.876;2.136;2023-06-14T07:58:41;101177.50;;;48.09;9.69
61086;BME280;46967;48.876;2.136;2023-06-14T08:01:06;101177.88;;;48.26;9.86
61086;BME280;46967;48.876;2.136;2023-06-14T08:03:33;101176.00;;;48.51;9.92
61086;BME280;46967;48.876;2.136;2023-06-14T08:05:58;101181.25;;;48.71;9.62
61086;BME280;46967;48.876;2.136;2023-06-14T08:08:24;101176.38;;;48.63;9.73
61086;BME280;46967;48.876;2.136;2023-06-14T08:10:49;101177.03;;;48.79;9.29
61086;BME280;46967;48.876;2.136;2023-06-14T08:13:15;101173.31;;;48.65;8.90
61086;BME280;46967;48.876;2.136;2023-06-14T08:15:40;101178.09;;;48.30;9.43
61086;BME280;46967;48.876;2.136;2023-06-14T08:18:06;101173.97;;;48.56;8.59
61086;BME280;46967;48.876;2.136;2023-06-14T08:20:31;101181.84;;;48.68;9.05
61086;BME280;46967;48.876;2.136;2023-06-14T08:22:57;101172.66;;;47.95;8.80
61086;BME280;46967;48.876;2.136;2023-06-14T08:25:23;101182.75;;;48.58;8.24
61086;BME280;46967;48.876;2.136;2023-06-14T08:27:48;101178.41;;;49.01;8.78
61086;BME280;46967;48.876;2.136;2023-06-14T08:30:15;101180.13;;;49.16;8.37
61086;BME280;46967;48.876;2.136;2023-06-14T08:32:42;101185.06;;;48.51;8.30
61086;BME280;46967;48.876;2.136;2023-06-14T08:35:08;101184.19;;;48.56;8.37
61086;BME280;46967;48.876;2.136;2023-06-14T08:37:38;101183.22;;;49.09;8.04
61086;BME280;46967;48.876;2.136;2023-06-14T08:40:04;101184.50;;;48.73;7.92
61086;BME280;46967;48.876;2.136;2023-06-14T08:42:32;101181.72;;;48.78;7.72
61086;BME280;46967;48.876;2.136;2023-06-14T08:44:58;101177.38;;;49.16;7.62
61086;BME280;46967;48.876;2.136;2023-06-14T08:47:26;101177.38;;;49.54;7.50
61086;BME280;46967;48.876;2.136;2023-06-14T08:49:53;101180.66;;;49.37;7.22
61086;BME280;46967;48.876;2.136;2023-06-14T08:52:20;101178.56;;;49.99;7.68
61086;BME280;46967;48.876;2.136;2023-06-14T08:54:46;101183.56;;;49.97;7.11
61086;BME280;46967;48.876;2.136;2023-06-14T08:57:14;101183.97;;;49.72;7.30
61086;BME280;46967;48.876;2.136;2023-06-14T08:59:46;101183.28;;;50.13;7.60
61086;BME280;46967;48.876;2.136;2023-06-14T09:02:12;101177.34;;;50.19;7.13
61086;BME280;46967;48.876;2.136;2023-06-14T09:04:39;101180.94;;;50.20;6.67
61086;BME280;46967;48.876;2.136;2023-06-14T09:07:05;101190.56;;;50.50;6.98
61086;BME280;46967;48.876;2.136;2023-06-14T09:09:31;101181.06;;;50.43;6.22
61086;BME280;46967;48.876;2.136;2023-06-14T09:11:57;101176.06;;;50.45;6.76
61086;BME280;46967;48.876;2.136;2023-06-14T09:14:24;101182.09;;;50.47;6.71
61086;BME280;46967;48.876;2.136;2023-06-14T09:16:53;101187.69;;;50.83;6.77
61086;BME280;46967;48.876;2.136;2023-06-14T09:19:25;101180.63;;;51.05;5.92
61086;BME280;46967;48.876;2.136;2023-06-14T09:21:51;101190.53;;;51.06;5.78
61086;BME280;46967;48.876;2.136;2023-06-14T09:24:18;101183.13;;;51.29;6.27
61086;BME280;46967;48.876;2.136;2023-06-14T09:26:46;101190.00;;;51.18;5.62
61086;BME280;46967;48.876;2.136;2023-06-14T09:29:12;101184.28;;;51.14;6.27
61086;BME280;46967;48.876;2.136;2023-06-14T09:31:37;101184.47;;;51.18;5.51
61086;BME280;46967;48.876;2.136;2023-06-14T09:34:03;101180.19;;;51.12;5.25
61086;BME280;46967;48.876;2.136;2023-06-14T09:36:31;101183.00;;;51.20;5.11
61086;BME280;46967;48.876;2.136;2023-06-14T09:38:58;101186.84;;;51.47;5.38
61086;BME280;46967;48.876;2.136;2023-06-14T09:41:40;101187.53;;;51.30;5.58
61086;BME280;46967;48.876;2.136;2023-06-14T09:44:07;101186.66;;;51.66;5.26
61086;BME280;46967;48.876;2.136;2023-06-14T09:46:34;101190.97;;;51.58;5.31
61086;BME280;46967;48.876;2.136;2023-06-14T09:49:01;101189.66;;;50.97;5.34
61086;BME280;46967;48.876;2.136;2023-06-14T09:51:27;101194.22;;;51.38;4.63
61086;BME280;46967;48.876;2.136;2023-06-14T09:53:55;101194.50;;;51.73;4.54
61086;BME280;46967;48.876;2.136;2023-06-14T09:56:27;101201.97;;;51.13;4.41
61086;BME280;46967;48.876;2.136;2023-06-14T09:58:56;101197.09;;;51.69;5.91
61086;BME280;46967;48.876;2.136;2023-06-14T10:01:23;101201.44;;;51.84;5.23
61086;BME280;46967;48.876;2.136;2023-06-14T10:03:55;101201.03;;;51.54;4.58
61086;BME280;46967;48.876;2.136;2023-06-14T10:06:24;101204.44;;;51.74;4.40
61086;BME280;46967;48.876;2.136;2023-06-14T10:08:53;101193.03;;;51.98;4.99
61086;BME280;46967;48.876;2.136;2023-06-14T10:11:21;101198.97;;;52.14;4.55
61086;BME280;46967;48.876;2.136;2023-06-14T10:13:47;101198.88;;;52.28;4.29
61086;BME280;46967;48.876;2.136;2023-06-14T10:16:19;101197.25;;;51.73;4.11
61086;BME280;46967;48.876;2.136;2023-06-14T10:24:30;101200.47;;;51.43;4.92
61086;BME280;46967;48.876;2.136;2023-06-14T10:26:58;101201.16;;;51.49;4.63
61086;BME280;46967;48.876;2.136;2023-06-14T10:29:24;101202.78;;;51.50;4.06
61086;BME280;46967;48.876;2.136;2023-06-14T10:31:56;101197.34;;;51.59;4.45
61086;BME280;46967;48.876;2.136;2023-06-14T10:34:26;101195.72;;;52.12;4.18
61086;BME280;46967;48.876;2.136;2023-06-14T10:37:12;101180.91;;;52.48;5.05
61086;BME280;46967;48.876;2.136;2023-06-14T10:39:40;101184.44;;;51.99;3.56
61086;BME280;46967;48.876;2.136;2023-06-14T10:42:15;101190.34;;;52.15;4.55
61086;BME280;46967;48.876;2.136;2023-06-14T10:44:50;101188.66;;;52.28;3.97
61086;BME280;46967;48.876;2.136;2023-06-14T10:47:34;101188.66;;;51.74;3.89
61086;BME280;46967;48.876;2.136;2023-06-14T10:50:08;101191.44;;;51.97;4.04
61086;BME280;46967;48.876;2.136;2023-06-14T10:52:39;101193.00;;;52.21;3.74
61086;BME280;46967;48.876;2.136;2023-06-14T10:55:08;101190.28;;;52.78;4.40
61086;BME280;46967;48.876;2.136;2023-06-14T10:57:40;101185.88;;;52.95;4.46
61086;BME280;46967;48.876;2.136;2023-06-14T11:00:07;101178.97;;;52.57;3.18
61086;BME280;46967;48.876;2.136;2023-06-14T11:03:16;101178.97;;;52.57;4.97
61086;BME280;46967;48.876;2.136;2023-06-14T11:05:54;101178.91;;;53.15;3.45
61086;BME280;46967;48.876;2.136;2023-06-14T11:11:13;101175.16;;;53.54;4.58
61086;BME280;46967;48.876;2.136;2023-06-14T11:13:42;101174.53;;;53.40;4.31
61086;BME280;46967;48.876;2.136;2023-06-14T11:16:13;101172.41;;;53.37;3.69
61086;BME280;46967;48.876;2.136;2023-06-14T11:18:38;101184.28;;;52.94;3.46
61086;BME280;46967;48.876;2.136;2023-06-14T11:21:04;101167.97;;;52.92;3.82
61086;BME280;46967;48.876;2.136;2023-06-14T11:23:29;101161.97;;;52.99;4.56
61086;BME280;46967;48.876;2.136;2023-06-14T11:25:54;101161.28;;;52.76;4.58
61086;BME280;46967;48.876;2.136;2023-06-14T11:28:20;101161.28;;;52.84;4.21
61086;BME280;46967;48.876;2.136;2023-06-14T11:30:47;101165.97;;;53.80;4.28
61086;BME280;46967;48.876;2.136;2023-06-14T11:33:20;101172.03;;;53.73;4.57
61086;BME280;46967;48.876;2.136;2023-06-14T11:35:47;101165.38;;;53.66;4.22
61086;BME280;46967;48.876;2.136;2023-06-14T11:38:13;101162.72;;;53.69;3.26
61086;BME280;46967;48.876;2.136;2023-06-14T11:40:38;101163.25;;;53.54;3.53
61086;BME280;46967;48.876;2.136;2023-06-14T11:43:04;101170.38;;;52.67;3.71
61086;BME280;46967;48.876;2.136;2023-06-14T11:45:30;101164.38;;;53.53;4.46
61086;BME280;46967;48.876;2.136;2023-06-14T11:47:57;101169.56;;;52.76;3.27
61086;BME280;46967;48.876;2.136;2023-06-14T11:50:23;101171.19;;;52.68;3.75
61086;BME280;46967;48.876;2.136;2023-06-14T11:52:56;101165.66;;;52.68;3.29
61086;BME280;46967;48.876;2.136;2023-06-14T11:55:22;101159.06;;;53.30;3.35
61086;BME280;46967;48.876;2.136;2023-06-14T11:57:48;101163.44;;;53.31;3.71
61086;BME280;46967;48.876;2.136;2023-06-14T12:00:14;101167.50;;;53.51;3.44
61086;BME280;46967;48.876;2.136;2023-06-14T12:02:41;101168.28;;;52.82;3.69
61086;BME280;46967;48.876;2.136;2023-06-14T12:05:08;101169.41;;;52.72;3.54
61086;BME280;46967;48.876;2.136;2023-06-14T12:07:36;101164.91;;;53.37;3.12
61086;BME280;46967;48.876;2.136;2023-06-14T12:12:28;101168.13;;;52.87;3.76
61086;BME280;46967;48.876;2.136;2023-06-14T12:14:55;101165.84;;;52.89;3.74
61086;BME280;46967;48.876;2.136;2023-06-14T12:17:24;101162.13;;;53.46;3.77
61086;BME280;46967;48.876;2.136;2023-06-14T12:19:50;101164.47;;;52.43;3.73
61086;BME280;46967;48.876;2.136;2023-06-14T12:22:16;101165.22;;;52.34;4.06
61086;BME280;46967;48.876;2.136;2023-06-14T12:24:46;101174.28;;;52.17;3.80
61086;BME280;46967;48.876;2.136;2023-06-14T12:27:12;101165.88;;;53.33;3.58
61086;BME280;46967;48.876;2.136;2023-06-14T12:29:41;101167.22;;;53.91;3.41
61086;BME280;46967;48.876;2.136;2023-06-14T12:32:09;101164.78;;;53.99;3.50
61086;BME280;46967;48.876;2.136;2023-06-14T12:34:34;101166.06;;;54.01;3.82
61086;BME280;46967;48.876;2.136;2023-06-14T12:37:01;101164.22;;;54.74;3.75
61086;BME280;46967;48.876;2.136;2023-06-14T12:39:26;101163.44;;;54.94;3.13
61086;BME280;46967;48.876;2.136;2023-06-14T12:41:51;101172.78;;;55.32;3.81
61086;BME280;46967;48.876;2.136;2023-06-14T12:44:17;101162.34;;;55.29;3.27
61086;BME280;46967;48.876;2.136;2023-06-14T12:46:42;101162.78;;;55.64;3.21
61086;BME280;46967;48.876;2.136;2023-06-14T12:49:12;101160.72;;;55.07;3.62
61086;BME280;46967;48.876;2.136;2023-06-14T12:51:37;101165.69;;;55.68;3.67
61086;BME280;46967;48.876;2.136;2023-06-14T12:54:03;101168.75;;;55.87;3.93
61086;BME280;46967;48.876;2.136;2023-06-14T12:56:29;101165.25;;;55.78;3.69
61086;BME280;46967;48.876;2.136;2023-06-14T12:58:54;101158.25;;;56.30;3.70
61086;BME280;46967;48.876;2.136;2023-06-14T13:01:19;101165.38;;;55.82;3.83
61086;BME280;46967;48.876;2.136;2023-06-14T13:03:46;101165.41;;;55.48;3.27
61086;BME280;46967;48.876;2.136;2023-06-14T13:06:12;101162.88;;;56.01;3.64